Time;durP1;ratioP1;P1;durP2;ratioP2;P2;SDS_P1;SDS_P2;PMS_P1;PMS_P2;Temp;Humidity;BMP_temperature;BMP_pressure;BME280_temperature;BME280_humidity;BME280_pressure;Samples;Min_cycle;Max_cycle;Signal;HPM_P1;HPM_P2
2021/10/24 00:01:22;;;;;;;;;;;;;;;12.80;nan;99192.22;5040888;28;19924;-86
2021/10/24 00:03:49;;;;;;;;;;;;;;;12.03;nan;99194.66;5058992;28;20290;-86
2021/10/24 00:06:16;;;;;;;;;;;;;;;12.21;nan;99195.88;5065216;28;19967;-86
2021/10/24 00:08:44;;;;;;;;;;;;;;;11.76;nan;99182.78;5058929;28;19924;-85
2021/10/24 00:11:11;;;;;;;;;;;;;;;12.86;nan;99191.25;5066467;28;20363;-86
2021/10/24 00:13:38;;;;;;;;;;;;;;;12.35;nan;99192.81;5062123;28;19973;-86
2021/10/24 00:16:05;;;;;;;;;;;;;;;12.27;nan;99196.16;5091912;28;19924;-86
2021/10/24 00:18:33;;;;;;;;;;;;;;;12.13;nan;99188.84;5090216;28;19924;-86
2021/10/24 00:21:00;;;;;;;;;;;;;;;11.98;nan;99198.75;5078771;28;19930;-86
2021/10/24 00:23:28;;;;;;;;;;;;;;;12.51;nan;99186.47;5058074;28;19930;-86
2021/10/24 00:25:55;;;;;;;;;;;;;;;12.07;nan;99182.16;5070992;28;19947;-86
2021/10/24 00:28:23;;;;;;;;;;;;;;;12.41;nan;99181.88;5058717;28;19985;-86
2021/10/24 00:30:51;;;;;;;;;;;;;;;12.30;nan;99176.50;5086617;28;19930;-86
2021/10/24 00:33:18;;;;;;;;;;;;;;;11.96;nan;99184.41;5034370;28;19924;-86
2021/10/24 00:35:46;;;;;;;;;;;;;;;11.93;nan;99184.47;5060932;28;19924;-86
2021/10/24 00:38:14;;;;;;;;;;;;;;;12.07;nan;99179.38;5067456;28;19931;-85
2021/10/24 00:40:41;;;;;;;;;;;;;;;12.37;nan;99186.75;5055198;28;19928;-85
2021/10/24 00:43:10;;;;;;;;;;;;;;;12.05;nan;99181.81;5076001;28;19973;-85
2021/10/24 00:45:38;;;;;;;;;;;;;;;12.35;nan;99173.19;5061418;28;19931;-85
2021/10/24 00:48:05;;;;;;;;;;;;;;;12.08;nan;99185.75;5025225;28;20380;-85
2021/10/24 00:50:33;;;;;;;;;;;;;;;12.14;nan;99173.63;5058003;28;19931;-85
2021/10/24 00:53:02;;;;;;;;;;;;;;;11.32;nan;99171.97;5056581;28;19947;-85
2021/10/24 00:55:29;;;;;;;;;;;;;;;11.51;nan;99165.66;5078024;28;19973;-85
2021/10/24 00:57:58;;;;;;;;;;;;;;;12.06;nan;99168.59;5078198;28;19928;-85
2021/10/24 01:00:26;;;;;;;;;;;;;;;11.95;nan;99182.03;5094722;28;19924;-85
2021/10/24 01:02:53;;;;;;;;;;;;;;;12.54;nan;99172.34;5058488;28;20563;-85
2021/10/24 01:05:20;;;;;;;;;;;;;;;11.68;nan;99162.53;5055148;28;19924;-86
2021/10/24 01:07:49;;;;;;;;;;;;;;;11.91;nan;99168.09;5034090;28;19970;-85
2021/10/24 01:10:17;;;;;;;;;;;;;;;12.20;nan;99166.31;5051863;28;20323;-85
2021/10/24 01:12:46;;;;;;;;;;;;;;;12.26;nan;99153.38;5042968;28;20330;-85
2021/10/24 01:15:14;;;;;;;;;;;;;;;12.56;nan;99136.28;5049147;28;19930;-85
2021/10/24 01:17:42;;;;;;;;;;;;;;;12.91;nan;99148.69;5070814;28;19924;-85
2021/10/24 01:20:14;;;;;;;;;;;;;;;12.89;nan;99133.53;5050995;28;20481;-85
2021/10/24 01:22:41;;;;;;;;;;;;;;;12.94;nan;99130.19;5044153;28;19973;-85
2021/10/24 01:25:08;;;;;;;;;;;;;;;12.94;nan;99135.78;5075823;28;20372;-86
2021/10/24 01:27:36;;;;;;;;;;;;;;;13.24;nan;99132.69;5066505;28;19924;-85
2021/10/24 01:30:05;;;;;;;;;;;;;;;12.97;nan;99123.69;5082351;28;19924;-85
2021/10/24 01:32:33;;;;;;;;;;;;;;;13.23;nan;99129.09;5043534;28;19925;-85
2021/10/24 01:35:02;;;;;;;;;;;;;;;13.04;nan;99115.16;5048402;28;19924;-85
2021/10/24 01:37:33;;;;;;;;;;;;;;;12.83;nan;99124.84;5048762;28;19923;-85
2021/10/24 01:40:03;;;;;;;;;;;;;;;12.94;nan;99114.16;5097189;28;19949;-85
2021/10/24 01:42:30;;;;;;;;;;;;;;;13.31;nan;99121.28;5035643;28;19930;-85
2021/10/24 01:44:58;;;;;;;;;;;;;;;13.35;nan;99119.16;5065557;28;19928;-85
2021/10/24 01:47:25;;;;;;;;;;;;;;;13.13;nan;99118.13;5076929;28;19928;-85
2021/10/24 01:49:52;;;;;;;;;;;;;;;12.91;nan;99114.22;5056639;28;19924;-86
2021/10/24 01:52:19;;;;;;;;;;;;;;;13.08;nan;99107.44;5088431;28;20286;-85
2021/10/24 01:54:47;;;;;;;;;;;;;;;13.12;nan;99102.50;5059635;28;19931;-86
2021/10/24 01:57:14;;;;;;;;;;;;;;;13.30;nan;99094.44;5067516;28;19973;-86
2021/10/24 01:59:41;;;;;;;;;;;;;;;13.00;nan;99097.59;5040245;28;19977;-85
2021/10/24 02:02:38;;;;;;;;;;;;;;;12.83;nan;99085.56;5089379;28;19927;-85
2021/10/24 02:05:25;;;;;;;;;;;;;;;13.00;nan;99080.78;5052642;28;19936;-85
2021/10/24 02:07:52;;;;;;;;;;;;;;;13.06;nan;99071.41;5089841;28;19923;-85
2021/10/24 02:10:21;;;;;;;;;;;;;;;13.10;nan;99076.94;5068810;28;19924;-85
2021/10/24 02:12:48;;;;;;;;;;;;;;;12.70;nan;99068.69;5048625;28;20298;-85
2021/10/24 02:15:19;;;;;;;;;;;;;;;13.14;nan;99066.41;5073125;28;20343;-85
2021/10/24 02:17:47;;;;;;;;;;;;;;;12.81;nan;99070.44;5074201;28;19924;-86
2021/10/24 02:20:19;;;;;;;;;;;;;;;12.62;nan;99067.28;5071433;28;19931;-85
2021/10/24 02:22:47;;;;;;;;;;;;;;;12.99;nan;99070.78;5069000;28;19924;-85
2021/10/24 02:25:18;;;;;;;;;;;;;;;12.60;nan;99061.31;5069166;28;19924;-85
2021/10/24 02:27:47;;;;;;;;;;;;;;;12.82;nan;99061.56;5051547;28;20290;-85
2021/10/24 02:30:15;;;;;;;;;;;;;;;12.66;nan;99064.41;5075200;28;19927;-85
2021/10/24 02:32:42;;;;;;;;;;;;;;;12.70;nan;99043.44;5069088;28;19985;-85
2021/10/24 02:35:20;;;;;;;;;;;;;;;12.34;nan;99044.75;5046156;28;19925;-85
2021/10/24 02:37:48;;;;;;;;;;;;;;;11.77;nan;99042.41;5069079;28;19931;-85
2021/10/24 02:40:17;;;;;;;;;;;;;;;12.37;nan;99041.06;5089389;28;19923;-85
2021/10/24 02:42:50;;;;;;;;;;;;;;;12.51;nan;99043.53;5069320;28;19929;-85
2021/10/24 02:45:30;;;;;;;;;;;;;;;12.20;nan;99043.06;5055404;28;19930;-85
2021/10/24 02:47:58;;;;;;;;;;;;;;;12.11;nan;99044.88;5075971;28;19925;-85
2021/10/24 02:50:26;;;;;;;;;;;;;;;11.90;nan;99043.34;5072871;28;20415;-85
2021/10/24 02:52:54;;;;;;;;;;;;;;;12.81;nan;99036.78;5072317;28;20286;-85
2021/10/24 02:55:21;;;;;;;;;;;;;;;11.57;nan;99033.19;5083691;28;19931;-85
2021/10/24 02:57:48;;;;;;;;;;;;;;;11.63;nan;99039.13;5093370;28;19923;-85
2021/10/24 03:00:18;;;;;;;;;;;;;;;12.68;nan;99034.69;5071630;28;19925;-85
2021/10/24 03:02:45;;;;;;;;;;;;;;;12.02;nan;99020.25;5030045;28;19924;-85
2021/10/24 03:05:13;;;;;;;;;;;;;;;11.83;nan;99032.25;5076122;28;19930;-85
2021/10/24 03:07:42;;;;;;;;;;;;;;;12.19;nan;99024.66;5079214;28;19924;-85
2021/10/24 03:10:09;;;;;;;;;;;;;;;12.23;nan;99014.19;5069343;28;20330;-85
2021/10/24 03:12:37;;;;;;;;;;;;;;;11.39;nan;99009.59;5035936;28;19931;-85
2021/10/24 03:15:05;;;;;;;;;;;;;;;12.27;nan;99012.06;5073591;28;19925;-84
2021/10/24 03:17:33;;;;;;;;;;;;;;;12.36;nan;99001.03;5054418;28;19924;-85
2021/10/24 03:20:01;;;;;;;;;;;;;;;12.14;nan;98997.19;5069630;28;20535;-85
2021/10/24 03:22:28;;;;;;;;;;;;;;;11.82;nan;99002.72;5064472;28;19930;-85
2021/10/24 03:25:01;;;;;;;;;;;;;;;12.73;nan;98980.91;5048171;28;19924;-85
2021/10/24 03:27:28;;;;;;;;;;;;;;;11.61;nan;98988.34;5092427;28;19924;-85
2021/10/24 03:29:57;;;;;;;;;;;;;;;12.26;nan;98992.88;5055127;28;19925;-85
2021/10/24 03:32:25;;;;;;;;;;;;;;;12.51;nan;98968.63;5042944;28;19928;-85
2021/10/24 03:34:53;;;;;;;;;;;;;;;12.06;nan;98973.34;5079880;28;19930;-85
2021/10/24 03:37:20;;;;;;;;;;;;;;;12.21;nan;98980.19;5084565;28;19928;-85
2021/10/24 03:39:51;;;;;;;;;;;;;;;12.39;nan;98969.34;5093175;28;19928;-85
2021/10/24 03:42:19;;;;;;;;;;;;;;;12.11;nan;98970.03;5051902;28;19924;-85
2021/10/24 03:44:46;;;;;;;;;;;;;;;11.63;nan;98986.72;5056814;28;19925;-85
2021/10/24 03:47:13;;;;;;;;;;;;;;;12.09;nan;98969.69;5054608;28;19924;-85
2021/10/24 03:49:42;;;;;;;;;;;;;;;11.87;nan;98974.22;5081080;28;19930;-85
2021/10/24 03:52:09;;;;;;;;;;;;;;;11.94;nan;98968.44;5066251;28;19924;-85
2021/10/24 03:54:37;;;;;;;;;;;;;;;11.68;nan;98975.00;5073838;28;19931;-84
2021/10/24 03:57:04;;;;;;;;;;;;;;;11.46;nan;98965.47;5046139;28;20291;-84
2021/10/24 03:59:31;;;;;;;;;;;;;;;11.50;nan;98966.19;5045854;28;19930;-85
2021/10/24 04:01:58;;;;;;;;;;;;;;;11.49;nan;98975.81;5059990;28;20379;-85
2021/10/24 04:04:28;;;;;;;;;;;;;;;11.11;nan;98966.19;5067456;28;19924;-85
2021/10/24 04:06:55;;;;;;;;;;;;;;;12.16;nan;98969.50;5063948;28;19930;-85
2021/10/24 04:09:22;;;;;;;;;;;;;;;12.33;nan;98957.09;5068847;28;19924;-85
2021/10/24 04:11:50;;;;;;;;;;;;;;;12.81;nan;98935.84;5045963;28;19929;-85
2021/10/24 04:14:18;;;;;;;;;;;;;;;12.80;nan;98956.72;5071537;28;19924;-85
2021/10/24 04:16:45;;;;;;;;;;;;;;;12.50;nan;98950.25;5085353;28;19927;-85
2021/10/24 04:19:30;;;;;;;;;;;;;;;11.76;nan;98945.66;5058905;28;19935;-85
2021/10/24 04:21:59;;;;;;;;;;;;;;;12.24;nan;98942.09;5054340;28;20399;-85
2021/10/24 04:24:28;;;;;;;;;;;;;;;11.58;nan;98934.03;5069705;28;19923;-85
2021/10/24 04:26:56;;;;;;;;;;;;;;;11.67;nan;98942.66;5071648;28;19929;-85
2021/10/24 04:29:23;;;;;;;;;;;;;;;12.05;nan;98935.38;5086759;28;19936;-85
2021/10/24 04:31:52;;;;;;;;;;;;;;;11.87;nan;98940.63;5034423;28;20294;-85
2021/10/24 04:34:20;;;;;;;;;;;;;;;11.60;nan;98942.78;5075421;28;19924;-85
2021/10/24 04:36:47;;;;;;;;;;;;;;;11.83;nan;98937.09;5097724;28;19930;-84
2021/10/24 04:39:14;;;;;;;;;;;;;;;12.15;nan;98950.34;5034527;28;19932;-85
2021/10/24 04:41:41;;;;;;;;;;;;;;;12.04;nan;98953.38;5071105;28;19934;-85
2021/10/24 04:44:10;;;;;;;;;;;;;;;12.30;nan;98941.16;5058606;28;19978;-85
2021/10/24 04:46:38;;;;;;;;;;;;;;;12.21;nan;98940.97;5037509;28;20300;-85
2021/10/24 04:49:08;;;;;;;;;;;;;;;11.65;nan;98933.91;5072490;28;19924;-85
2021/10/24 04:51:35;;;;;;;;;;;;;;;11.42;nan;98933.22;5038570;28;19930;-84
2021/10/24 04:54:03;;;;;;;;;;;;;;;12.02;nan;98913.84;5057862;28;19924;-85
2021/10/24 04:56:31;;;;;;;;;;;;;;;12.39;nan;98913.31;5068751;28;19978;-85
2021/10/24 04:58:59;;;;;;;;;;;;;;;12.25;nan;98888.44;5037897;28;19931;-85
2021/10/24 05:01:26;;;;;;;;;;;;;;;12.51;nan;98901.38;5069107;28;19932;-85
2021/10/24 05:03:54;;;;;;;;;;;;;;;11.72;nan;98896.56;5054529;28;20446;-83
2021/10/24 05:06:25;;;;;;;;;;;;;;;12.28;nan;98887.56;5054972;28;20321;-85
2021/10/24 05:08:53;;;;;;;;;;;;;;;12.09;nan;98896.88;5053732;28;19974;-84
2021/10/24 05:11:21;;;;;;;;;;;;;;;12.09;nan;98893.28;5059296;28;19929;-85
2021/10/24 05:13:48;;;;;;;;;;;;;;;11.21;nan;98884.09;5007165;28;19929;-85
2021/10/24 05:16:16;;;;;;;;;;;;;;;11.62;nan;98894.75;5049549;28;19925;-85
2021/10/24 05:18:44;;;;;;;;;;;;;;;11.66;nan;98896.28;5057285;28;19924;-85
2021/10/24 05:21:14;;;;;;;;;;;;;;;11.58;nan;98878.06;5049791;28;19924;-85
2021/10/24 05:23:41;;;;;;;;;;;;;;;12.30;nan;98896.34;5076608;28;19928;-86
2021/10/24 05:26:08;;;;;;;;;;;;;;;12.11;nan;98888.81;5050503;28;19925;-85
2021/10/24 05:28:37;;;;;;;;;;;;;;;12.46;nan;98882.28;5055976;28;19925;-85
2021/10/24 05:31:04;;;;;;;;;;;;;;;11.87;nan;98879.03;5040479;28;19970;-86
2021/10/24 05:33:34;;;;;;;;;;;;;;;11.94;nan;98873.25;5057141;28;19924;-85
2021/10/24 05:36:28;;;;;;;;;;;;;;;11.86;nan;98882.25;5035232;28;19925;-85
2021/10/24 05:38:55;;;;;;;;;;;;;;;12.40;nan;98872.84;5051042;28;19925;-86
2021/10/24 05:41:31;;;;;;;;;;;;;;;12.87;nan;98863.97;5040684;28;19977;-86
2021/10/24 05:43:59;;;;;;;;;;;;;;;11.88;nan;98872.19;5043353;28;19947;-85
2021/10/24 05:46:26;;;;;;;;;;;;;;;11.98;nan;98865.53;5010121;28;19930;-85
2021/10/24 05:48:58;;;;;;;;;;;;;;;12.14;nan;98873.94;5056875;28;19970;-85
2021/10/24 05:51:26;;;;;;;;;;;;;;;12.07;nan;98870.53;5040179;28;19924;-86
2021/10/24 05:53:54;;;;;;;;;;;;;;;11.18;nan;98870.97;5040659;28;19924;-85
2021/10/24 05:56:33;;;;;;;;;;;;;;;11.66;nan;98865.50;5036994;28;19931;-85
2021/10/24 05:59:01;;;;;;;;;;;;;;;11.86;nan;98871.06;5073463;28;19935;-85
2021/10/24 06:01:45;;;;;;;;;;;;;;;12.60;nan;98867.91;5036599;28;19932;-87
2021/10/24 06:04:30;;;;;;;;;;;;;;;11.84;nan;98863.09;5051362;28;19924;-86
2021/10/24 06:06:58;;;;;;;;;;;;;;;12.00;nan;98871.50;5040253;28;20368;-85
2021/10/24 06:09:51;;;;;;;;;;;;;;;11.90;nan;98855.75;5056698;28;19925;-86
2021/10/24 06:12:38;;;;;;;;;;;;;;;11.78;nan;98838.84;5051921;28;19931;-87
2021/10/24 06:15:11;;;;;;;;;;;;;;;12.23;nan;98854.50;5023436;28;20344;-90
2021/10/24 06:17:38;;;;;;;;;;;;;;;11.92;nan;98853.28;5067617;28;19925;-89
2021/10/24 06:20:07;;;;;;;;;;;;;;;12.16;nan;98835.06;5041871;28;20380;-89
2021/10/24 06:22:35;;;;;;;;;;;;;;;11.60;nan;98852.47;5020150;28;19925;-90
2021/10/24 06:25:06;;;;;;;;;;;;;;;11.81;nan;98852.78;5066112;28;19938;-90
2021/10/24 06:27:40;;;;;;;;;;;;;;;12.33;nan;98845.03;5042006;28;19924;-90
2021/10/24 06:30:11;;;;;;;;;;;;;;;12.06;nan;98847.34;5023505;28;19924;-89
2021/10/24 06:32:57;;;;;;;;;;;;;;;11.64;nan;98845.59;5059132;28;20433;-89
2021/10/24 06:35:48;;;;;;;;;;;;;;;11.68;nan;98851.88;4979406;28;20008;-90
2021/10/24 06:38:34;;;;;;;;;;;;;;;11.74;nan;98844.53;4983087;28;19926;-90
2021/10/24 06:41:13;;;;;;;;;;;;;;;11.66;nan;98840.31;4978595;28;20304;-89
2021/10/24 06:43:50;;;;;;;;;;;;;;;12.16;nan;98835.06;4995957;28;19932;-89
2021/10/24 06:46:36;;;;;;;;;;;;;;;11.77;nan;98832.47;4992136;28;19925;-90
2021/10/24 06:49:21;;;;;;;;;;;;;;;11.72;nan;98849.75;4992730;28;19926;-89
2021/10/24 06:51:52;;;;;;;;;;;;;;;12.41;nan;98834.41;5020077;28;19925;-89
2021/10/24 06:54:46;;;;;;;;;;;;;;;12.63;nan;98841.78;5002825;28;19925;-89
2021/10/24 06:57:49;;;;;;;;;;;;;;;11.60;nan;98830.84;4982488;28;19977;-89
2021/10/24 07:00:51;;;;;;;;;;;;;;;12.65;nan;98839.34;4952549;29;19926;-88
2021/10/24 07:03:37;;;;;;;;;;;;;;;12.38;nan;98852.09;4938030;29;19933;-89
2021/10/24 07:06:33;;;;;;;;;;;;;;;12.31;nan;98857.91;4906125;28;19934;-89
2021/10/24 07:09:17;;;;;;;;;;;;;;;11.68;nan;98854.66;4955968;28;19948;-88
2021/10/24 07:11:51;;;;;;;;;;;;;;;12.81;nan;98857.34;4937624;28;19927;-88
2021/10/24 07:14:18;;;;;;;;;;;;;;;12.51;nan;98861.38;4990082;28;19977;-88
2021/10/24 07:16:47;;;;;;;;;;;;;;;12.41;nan;98852.03;4958116;28;19972;-88
2021/10/24 07:19:14;;;;;;;;;;;;;;;11.90;nan;98847.34;4960544;28;19980;-89
2021/10/24 07:21:43;;;;;;;;;;;;;;;11.70;nan;98849.44;4991862;28;20412;-87
2021/10/24 07:24:26;;;;;;;;;;;;;;;12.10;nan;98847.25;4964113;28;19936;-86
2021/10/24 07:26:53;;;;;;;;;;;;;;;11.84;nan;98857.50;4976411;28;19930;-84
2021/10/24 07:29:20;;;;;;;;;;;;;;;11.54;nan;98873.78;4959094;28;19930;-82
2021/10/24 07:31:50;;;;;;;;;;;;;;;11.56;nan;98868.53;4959893;28;19925;-84
2021/10/24 07:34:37;;;;;;;;;;;;;;;11.51;nan;98878.22;5014219;28;19925;-86
2021/10/24 07:37:04;;;;;;;;;;;;;;;11.55;nan;98884.53;5060466;28;19988;-87
2021/10/24 07:39:31;;;;;;;;;;;;;;;11.16;nan;98867.84;5024697;28;19990;-86
2021/10/24 07:41:59;;;;;;;;;;;;;;;11.65;nan;98886.31;5038282;28;20280;-87
2021/10/24 07:44:26;;;;;;;;;;;;;;;11.20;nan;98890.91;5039822;28;19924;-88
2021/10/24 07:46:54;;;;;;;;;;;;;;;11.92;nan;98900.88;5055014;28;20391;-87
2021/10/24 07:49:26;;;;;;;;;;;;;;;11.30;nan;98883.50;5005009;28;19936;-87
2021/10/24 07:51:54;;;;;;;;;;;;;;;11.37;nan;98884.16;5074107;28;19929;-91
2021/10/24 07:54:22;;;;;;;;;;;;;;;11.93;nan;98896.88;5059049;28;19932;-90
2021/10/24 07:56:51;;;;;;;;;;;;;;;11.82;nan;98893.53;5059518;28;19924;-92
2021/10/24 07:59:26;;;;;;;;;;;;;;;12.07;nan;98882.50;5036624;28;19925;-89
2021/10/24 08:01:56;;;;;;;;;;;;;;;11.38;nan;98884.91;5052136;28;19925;-92
2021/10/24 08:04:24;;;;;;;;;;;;;;;12.07;nan;98898.53;5046330;28;19928;-91
2021/10/24 08:06:51;;;;;;;;;;;;;;;12.36;nan;98886.16;5036716;28;19925;-90
2021/10/24 08:09:19;;;;;;;;;;;;;;;12.69;nan;98879.28;5048591;28;19924;-86
2021/10/24 08:11:48;;;;;;;;;;;;;;;12.26;nan;98878.03;5058674;28;19929;-90
2021/10/24 08:14:16;;;;;;;;;;;;;;;12.47;nan;98889.50;5034806;28;19931;-88
2021/10/24 08:16:45;;;;;;;;;;;;;;;12.89;nan;98875.56;5042442;28;19985;-87
2021/10/24 08:19:19;;;;;;;;;;;;;;;13.06;nan;98882.69;5034924;28;19924;-92
2021/10/24 08:22:32;;;;;;;;;;;;;;;12.34;nan;98869.00;5064088;28;19924;-86
2021/10/24 08:25:00;;;;;;;;;;;;;;;12.44;nan;98870.75;5043028;28;19924;-86
2021/10/24 08:27:30;;;;;;;;;;;;;;;12.37;nan;98859.72;5046165;28;19924;-90
2021/10/24 08:30:17;;;;;;;;;;;;;;;12.40;nan;98861.63;5045119;28;19982;-90
2021/10/24 08:32:51;;;;;;;;;;;;;;;12.02;nan;98869.06;5010274;28;20007;-88
2021/10/24 08:35:20;;;;;;;;;;;;;;;11.62;nan;98867.59;5042514;28;19965;-89
2021/10/24 08:37:49;;;;;;;;;;;;;;;11.44;nan;98861.59;5038285;28;19925;-87
2021/10/24 08:40:16;;;;;;;;;;;;;;;11.89;nan;98867.38;5074062;28;19925;-87
2021/10/24 08:42:45;;;;;;;;;;;;;;;11.88;nan;98858.19;5058416;28;19959;-91
2021/10/24 08:45:13;;;;;;;;;;;;;;;11.79;nan;98874.81;5041829;28;20113;-90
2021/10/24 08:47:41;;;;;;;;;;;;;;;12.44;nan;98867.97;5027127;28;20331;-89
2021/10/24 08:50:10;;;;;;;;;;;;;;;12.10;nan;98870.44;5041984;28;19931;-90
2021/10/24 08:52:39;;;;;;;;;;;;;;;12.06;nan;98858.53;5047666;28;19977;-91
2021/10/24 08:55:08;;;;;;;;;;;;;;;12.21;nan;98859.75;5025113;28;19947;-91
2021/10/24 08:57:35;;;;;;;;;;;;;;;12.36;nan;98855.34;5006053;28;20299;-91
2021/10/24 09:00:04;;;;;;;;;;;;;;;12.23;nan;98862.09;5025989;28;20383;-91
2021/10/24 09:03:09;;;;;;;;;;;;;;;12.01;nan;98853.44;5049219;28;19924;-90
2021/10/24 09:05:40;;;;;;;;;;;;;;;11.96;nan;98859.59;5008465;28;19925;-92
2021/10/24 09:08:09;;;;;;;;;;;;;;;11.56;nan;98858.13;5025149;28;19931;-89
2021/10/24 09:10:42;;;;;;;;;;;;;;;11.77;nan;98857.66;5051493;28;19925;-88
2021/10/24 09:13:11;;;;;;;;;;;;;;;12.21;nan;98870.97;5039775;28;20605;-86
2021/10/24 09:15:44;;;;;;;;;;;;;;;12.50;nan;98866.19;5088997;28;19928;-88
2021/10/24 09:18:12;;;;;;;;;;;;;;;12.38;nan;98872.53;5068655;28;19924;-89
2021/10/24 09:20:50;;;;;;;;;;;;;;;12.44;nan;98872.75;5040794;28;19925;-94
2021/10/24 09:23:18;;;;;;;;;;;;;;;12.09;nan;98862.47;5026933;28;20307;-90
2021/10/24 09:25:50;;;;;;;;;;;;;;;11.87;nan;98867.03;5060296;28;19969;-90
2021/10/24 09:28:20;;;;;;;;;;;;;;;12.59;nan;98880.34;5075275;28;19924;-89
2021/10/24 09:30:57;;;;;;;;;;;;;;;12.88;nan;98862.75;5078226;28;19930;-92
2021/10/24 09:33:40;;;;;;;;;;;;;;;12.16;nan;98873.50;5062047;28;20310;-92
2021/10/24 09:36:07;;;;;;;;;;;;;;;13.16;nan;98881.59;5086434;28;19925;-92
2021/10/24 09:39:10;;;;;;;;;;;;;;;12.86;nan;98870.84;5019804;28;19929;-91
2021/10/24 09:41:37;;;;;;;;;;;;;;;13.14;nan;98853.19;5013079;28;19924;-92
2021/10/24 09:44:15;;;;;;;;;;;;;;;12.70;nan;98863.25;4999149;28;19955;-92
2021/10/24 09:46:48;;;;;;;;;;;;;;;12.18;nan;98874.63;4997969;28;19932;-92
2021/10/24 09:49:17;;;;;;;;;;;;;;;12.05;nan;98886.97;4988497;28;19925;-92
2021/10/24 09:51:46;;;;;;;;;;;;;;;12.29;nan;98872.34;5011403;28;19975;-92
2021/10/24 09:54:21;;;;;;;;;;;;;;;12.89;nan;98875.56;5009514;28;19925;-92
2021/10/24 09:56:50;;;;;;;;;;;;;;;12.10;nan;98878.81;5011793;28;19925;-92
2021/10/24 09:59:21;;;;;;;;;;;;;;;12.17;nan;98883.47;5005733;28;19932;-91
2021/10/24 10:01:49;;;;;;;;;;;;;;;12.26;nan;98878.84;5020388;28;19959;-93
2021/10/24 10:04:22;;;;;;;;;;;;;;;12.41;nan;98871.63;4986104;28;20432;-92
2021/10/24 10:06:50;;;;;;;;;;;;;;;12.79;nan;98877.41;5001390;28;20381;-92
2021/10/24 10:09:17;;;;;;;;;;;;;;;12.21;nan;98876.56;4984729;28;19925;-92
2021/10/24 10:11:47;;;;;;;;;;;;;;;12.86;nan;98882.03;5004930;28;19929;-92
2021/10/24 10:14:26;;;;;;;;;;;;;;;12.34;nan;98869.00;5018536;28;19924;-93
2021/10/24 10:16:58;;;;;;;;;;;;;;;11.95;nan;98879.63;5024927;28;19973;-91
2021/10/24 10:19:30;;;;;;;;;;;;;;;12.36;nan;98876.97;5051995;28;19929;-93
2021/10/24 10:22:17;;;;;;;;;;;;;;;12.30;nan;98868.31;5069293;28;19931;-93
2021/10/24 10:24:45;;;;;;;;;;;;;;;13.33;nan;98861.44;5052232;28;19924;-94
2021/10/24 10:27:28;;;;;;;;;;;;;;;13.05;nan;98853.88;5035042;28;19947;-94
2021/10/24 10:29:57;;;;;;;;;;;;;;;13.37;nan;98855.72;5054145;28;20295;-93
2021/10/24 10:32:35;;;;;;;;;;;;;;;12.72;nan;98843.97;5044129;28;19931;-93
2021/10/24 10:35:05;;;;;;;;;;;;;;;13.46;nan;98847.41;5020742;28;19931;-92
2021/10/24 10:37:40;;;;;;;;;;;;;;;13.18;nan;98848.25;5068867;28;19932;-88
2021/10/24 10:40:12;;;;;;;;;;;;;;;13.83;nan;98838.19;5091744;28;19924;-89
2021/10/24 10:42:43;;;;;;;;;;;;;;;13.57;nan;98837.41;5032948;28;19925;-88
2021/10/24 10:45:16;;;;;;;;;;;;;;;14.16;nan;98853.56;5045244;28;19932;-88
2021/10/24 10:47:54;;;;;;;;;;;;;;;13.74;nan;98844.50;5053490;28;19925;-89
2021/10/24 10:50:30;;;;;;;;;;;;;;;13.66;nan;98848.00;5054057;28;19931;-88
2021/10/24 10:53:02;;;;;;;;;;;;;;;14.09;nan;98850.97;5068895;28;19924;-88
2021/10/24 10:55:48;;;;;;;;;;;;;;;14.33;nan;98855.00;5050112;28;19924;-87
2021/10/24 10:58:40;;;;;;;;;;;;;;;13.91;nan;98862.00;5057182;28;19931;-90
2021/10/24 11:01:24;;;;;;;;;;;;;;;14.04;nan;98860.75;5068238;28;20452;-87
2021/10/24 11:03:56;;;;;;;;;;;;;;;13.92;nan;98846.72;5058344;28;19925;-85
2021/10/24 11:06:23;;;;;;;;;;;;;;;13.86;nan;98848.53;5071841;28;19930;-86
2021/10/24 11:08:51;;;;;;;;;;;;;;;14.23;nan;98856.94;5072516;28;19924;-88
2021/10/24 11:14:11;;;;;;;;;;;;;;;13.32;nan;98856.25;5053348;28;19924;-86
2021/10/24 11:17:03;;;;;;;;;;;;;;;13.45;nan;98846.63;5062133;28;19979;-85
2021/10/24 11:19:37;;;;;;;;;;;;;;;12.84;nan;98857.25;5073477;28;19931;-86
2021/10/24 11:22:06;;;;;;;;;;;;;;;13.12;nan;98862.06;5071391;28;19939;-91
2021/10/24 11:24:33;;;;;;;;;;;;;;;13.79;nan;98848.75;5073579;28;19931;-90
2021/10/24 11:27:05;;;;;;;;;;;;;;;13.78;nan;98835.97;5054716;28;19924;-85
2021/10/24 11:29:33;;;;;;;;;;;;;;;14.19;nan;98818.94;5087497;28;19977;-85
2021/10/24 11:32:19;;;;;;;;;;;;;;;12.88;nan;98829.09;5089207;28;19924;-85
2021/10/24 11:34:46;;;;;;;;;;;;;;;14.15;nan;98844.34;5069027;28;19951;-84
2021/10/24 11:37:17;;;;;;;;;;;;;;;13.90;nan;98829.56;5085644;28;19942;-85
2021/10/24 11:40:04;;;;;;;;;;;;;;;14.28;nan;98828.25;5073173;28;19931;-84
2021/10/24 11:42:31;;;;;;;;;;;;;;;13.31;nan;98823.84;5054773;28;19924;-86
2021/10/24 11:45:14;;;;;;;;;;;;;;;13.53;nan;98831.16;5073802;28;19970;-85
2021/10/24 11:47:55;;;;;;;;;;;;;;;14.14;nan;98819.50;5055733;28;19924;-86
2021/10/24 11:50:43;;;;;;;;;;;;;;;13.68;nan;98820.25;5066186;28;19928;-86
2021/10/24 11:53:18;;;;;;;;;;;;;;;14.25;nan;98814.34;5077170;28;19929;-86
2021/10/24 11:55:47;;;;;;;;;;;;;;;14.12;nan;98822.78;5058636;28;19982;-86
2021/10/24 11:58:27;;;;;;;;;;;;;;;13.07;nan;98820.53;5074439;28;19932;-85
2021/10/24 12:01:04;;;;;;;;;;;;;;;13.55;nan;98811.84;5036348;28;19947;-85
2021/10/24 12:03:34;;;;;;;;;;;;;;;12.46;nan;98806.63;5035039;28;20416;-86
2021/10/24 12:06:02;;;;;;;;;;;;;;;13.73;nan;98809.25;5057343;28;19932;-86
2021/10/24 12:08:46;;;;;;;;;;;;;;;13.77;nan;98800.69;5066069;28;19924;-86
2021/10/24 12:11:16;;;;;;;;;;;;;;;13.51;nan;98794.31;5044899;28;19929;-90
2021/10/24 12:13:44;;;;;;;;;;;;;;;13.83;nan;98804.50;5039633;28;19924;-88
2021/10/24 12:16:24;;;;;;;;;;;;;;;13.50;nan;98806.78;5047050;28;20326;-87
2021/10/24 12:19:10;;;;;;;;;;;;;;;12.71;nan;98803.13;5056583;28;20289;-87
2021/10/24 12:21:38;;;;;;;;;;;;;;;13.38;nan;98801.16;5053958;28;20069;-88
2021/10/24 12:24:16;;;;;;;;;;;;;;;12.73;nan;98806.28;5044191;28;19927;-88
2021/10/24 12:26:44;;;;;;;;;;;;;;;12.68;nan;98810.44;5047443;28;19946;-90
2021/10/24 12:29:17;;;;;;;;;;;;;;;12.66;nan;98807.28;5050482;28;20425;-87
2021/10/24 12:32:04;;;;;;;;;;;;;;;12.91;nan;98811.38;5042447;28;19925;-88
2021/10/24 12:34:31;;;;;;;;;;;;;;;12.90;nan;98812.63;5038870;28;19924;-89
2021/10/24 12:36:58;;;;;;;;;;;;;;;13.32;nan;98798.13;5020722;28;19924;-88
2021/10/24 12:39:26;;;;;;;;;;;;;;;13.31;nan;98807.78;5068371;28;19931;-87
2021/10/24 12:41:54;;;;;;;;;;;;;;;13.45;nan;98806.56;5041721;28;20390;-89
2021/10/24 12:44:24;;;;;;;;;;;;;;;13.58;nan;98801.72;5037175;28;19924;-88
2021/10/24 12:46:52;;;;;;;;;;;;;;;13.04;nan;98796.19;5056848;28;19925;-89
2021/10/24 12:49:23;;;;;;;;;;;;;;;12.97;nan;98793.56;5022845;28;19932;-91
2021/10/24 12:52:07;;;;;;;;;;;;;;;13.63;nan;98790.72;5021992;28;19966;-92
2021/10/24 12:54:35;;;;;;;;;;;;;;;13.68;nan;98786.53;4994028;28;19947;-90
2021/10/24 12:57:03;;;;;;;;;;;;;;;13.05;nan;98789.34;5002241;28;19947;-91
2021/10/24 12:59:30;;;;;;;;;;;;;;;13.69;nan;98777.69;5036804;28;19925;-93
2021/10/24 13:02:00;;;;;;;;;;;;;;;13.61;nan;98776.34;5047370;28;19931;-92
2021/10/24 13:04:28;;;;;;;;;;;;;;;13.92;nan;98774.50;5037034;28;19932;-94
2021/10/24 13:06:56;;;;;;;;;;;;;;;13.73;nan;98767.13;5053898;28;20380;-93
2021/10/24 13:09:25;;;;;;;;;;;;;;;12.95;nan;98775.63;5004852;28;19974;-91
2021/10/24 13:11:53;;;;;;;;;;;;;;;13.25;nan;98764.69;5004173;28;19931;-93
2021/10/24 13:14:21;;;;;;;;;;;;;;;14.04;nan;98770.09;5021342;28;19924;-95
2021/10/24 13:16:52;;;;;;;;;;;;;;;13.07;nan;98744.03;5071744;28;20452;-95
2021/10/24 13:19:22;;;;;;;;;;;;;;;13.43;nan;98755.72;5052398;28;19931;-93
2021/10/24 13:24:17;;;;;;;;;;;;;;;13.95;nan;98762.34;5003835;28;19925;-91
2021/10/24 13:26:46;;;;;;;;;;;;;;;13.32;nan;98758.84;5020144;28;20457;-93
2021/10/24 13:29:14;;;;;;;;;;;;;;;13.35;nan;98752.34;5005104;28;20035;-93
2021/10/24 13:31:42;;;;;;;;;;;;;;;13.71;nan;98743.53;5037834;28;20376;-91
2021/10/24 13:34:10;;;;;;;;;;;;;;;13.68;nan;98741.63;5006299;28;19925;-95
2021/10/24 13:36:38;;;;;;;;;;;;;;;13.65;nan;98742.53;5018955;28;19932;-94